createdAt,value
2018-09-17T00:00:53.480Z,78.97
2018-09-17T00:01:53.469Z,78.87
2018-09-17T00:02:53.457Z,79.07
2018-09-17T00:03:53.428Z,78.97
2018-09-17T00:04:53.415Z,78.87
2018-09-17T00:05:53.403Z,78.87
2018-09-17T00:06:53.434Z,79.48
2018-09-17T00:07:53.400Z,78.66
2018-09-17T00:08:53.365Z,78.87
2018-09-17T00:09:53.377Z,79.27
2018-09-17T00:10:53.363Z,79.27
2018-09-17T00:11:53.351Z,79.38
2018-09-17T00:12:53.360Z,79.27
2018-09-17T00:13:53.320Z,78.97
2018-09-17T00:14:53.313Z,79.38
2018-09-17T00:15:53.311Z,79.17
2018-09-17T00:16:53.283Z,79.17
2018-09-17T00:17:53.330Z,78.97
2018-09-17T00:18:53.260Z,79.27
2018-09-17T00:19:53.275Z,79.58
2018-09-17T00:20:53.242Z,79.07
2018-09-17T00:21:53.259Z,79.00
2018-09-17T00:22:53.224Z,79.27
2018-09-17T00:23:53.218Z,79.48
2018-09-17T00:24:53.229Z,79.27
2018-09-17T00:25:53.179Z,79.48
2018-09-17T00:26:53.213Z,79.48
2018-09-17T00:27:53.248Z,79.17
2018-09-17T00:28:53.148Z,79.41
2018-09-17T00:29:53.160Z,79.93
2018-09-17T00:30:53.215Z,79.41
2018-09-17T00:31:53.153Z,79.41
2018-09-17T00:32:53.164Z,79.52
2018-09-17T00:33:53.102Z,79.93
2018-09-17T00:34:53.111Z,79.93
2018-09-17T00:35:53.130Z,79.72
2018-09-17T00:36:53.072Z,79.62
2018-09-17T00:37:53.062Z,79.62
2018-09-17T00:38:53.044Z,79.52
2018-09-17T00:39:53.031Z,79.93
2018-09-17T00:40:53.009Z,80.02
2018-09-17T00:41:53.049Z,79.52
2018-09-17T00:42:52.994Z,79.82
2018-09-17T00:43:52.992Z,79.41
2018-09-17T00:44:53.000Z,79.62
2018-09-17T00:45:52.967Z,79.32
2018-09-17T00:46:52.970Z,79.52
2018-09-17T00:47:52.954Z,80.13
2018-09-17T00:48:52.929Z,79.72
2018-09-17T00:49:52.926Z,79.72
2018-09-17T00:50:52.960Z,79.55
2018-09-17T00:51:52.891Z,79.75
2018-09-17T00:52:52.886Z,79.75
2018-09-17T00:53:52.883Z,79.25
2018-09-17T00:54:52.871Z,79.45
2018-09-17T00:55:52.890Z,79.66
2018-09-17T00:56:52.857Z,79.55
2018-09-17T00:57:52.938Z,79.96
2018-09-17T00:58:52.860Z,79.52
2018-09-17T00:59:52.824Z,79.86
2018-09-17T01:00:52.801Z,79.75
2018-09-17T01:01:52.817Z,79.66
2018-09-17T01:02:52.784Z,79.55
2018-09-17T01:03:52.793Z,79.86
2018-09-17T01:04:52.757Z,79.35
2018-09-17T01:05:52.771Z,79.86
2018-09-17T01:06:52.740Z,80.27
2018-09-17T01:07:52.748Z,80.27
2018-09-17T01:08:52.727Z,79.66
2018-09-17T01:09:52.706Z,78.94
2018-09-17T01:10:52.694Z,79.86
2018-09-17T01:11:52.704Z,79.66
2018-09-17T01:12:52.668Z,79.66
2018-09-17T01:13:52.706Z,79.75
2018-09-17T01:14:52.659Z,80.16
2018-09-17T01:15:52.626Z,79.55
2018-09-17T01:16:52.631Z,79.04
2018-09-17T01:17:52.621Z,79.66
2018-09-17T01:18:52.610Z,79.55
2018-09-17T01:19:52.592Z,79.86
2018-09-17T01:20:52.574Z,79.96
2018-09-17T01:21:52.601Z,79.75
2018-09-17T01:22:52.574Z,79.96
2018-09-17T01:23:52.575Z,78.94
2018-09-17T01:24:52.545Z,78.74
2018-09-17T01:25:52.519Z,79.14
2018-09-17T01:26:52.529Z,79.04
2018-09-17T01:27:52.578Z,79.25
2018-09-17T01:28:52.507Z,79.14
2018-09-17T01:29:52.482Z,78.64
2018-09-17T01:30:52.496Z,78.74
2018-09-17T01:31:52.475Z,78.74
2018-09-17T01:32:52.435Z,79.25
2018-09-17T01:33:52.448Z,78.98
2018-09-17T01:34:52.461Z,79.55
2018-09-17T01:35:52.403Z,79.08
2018-09-17T01:36:52.443Z,79.69
2018-09-17T01:37:52.377Z,79.08
2018-09-17T01:38:52.374Z,79.49
2018-09-17T01:39:52.360Z,79.80
2018-09-17T01:40:52.390Z,79.90
2018-09-17T01:41:52.391Z,79.90
2018-09-17T01:42:52.323Z,79.69
2018-09-17T01:43:52.317Z,79.14
2018-09-17T01:44:52.308Z,78.67
2018-09-17T01:45:52.295Z,78.88
2018-09-17T01:46:52.301Z,78.88
2018-09-17T01:47:52.269Z,79.08
2018-09-17T01:48:52.324Z,79.25
2018-09-17T01:49:52.246Z,79.39
2018-09-17T01:50:52.240Z,79.08
2018-09-17T01:51:52.239Z,79.49
2018-09-17T01:52:52.242Z,80.00
2018-09-17T01:53:52.202Z,79.90
2018-09-17T01:54:52.263Z,79.59
2018-09-17T01:55:52.201Z,79.49
2018-09-17T01:56:52.176Z,79.90
2018-09-17T01:57:52.160Z,79.08
2018-09-17T01:58:52.144Z,79.08
2018-09-17T01:59:52.135Z,79.66
2018-09-17T02:00:52.137Z,78.98
2018-09-17T02:01:52.136Z,79.49
2018-09-17T02:02:52.111Z,79.39
2018-09-17T02:03:52.093Z,79.59
2018-09-17T02:04:52.100Z,79.08
2018-09-17T02:05:52.070Z,78.98
2018-09-17T02:06:52.096Z,78.88
2018-09-17T02:07:52.080Z,79.35
2018-09-17T02:08:52.128Z,79.49
2018-09-17T02:09:52.034Z,79.39
2018-09-17T02:10:52.013Z,79.08
2018-09-17T02:11:52.022Z,79.49
2018-09-17T02:12:52.035Z,79.18
2018-09-17T02:13:52.001Z,80.00
2018-09-17T02:14:51.979Z,79.90
2018-09-17T02:15:52.000Z,78.98
2018-09-17T02:16:51.950Z,78.98
2018-09-17T02:17:51.939Z,79.08
2018-09-17T02:18:51.957Z,79.39
2018-09-17T02:19:51.919Z,79.18
2018-09-17T02:20:51.904Z,79.28
2018-09-17T02:21:51.943Z,79.59
2018-09-17T02:22:51.885Z,79.59
2018-09-17T02:23:51.894Z,79.69
2018-09-17T02:24:51.859Z,79.69
2018-09-17T02:25:51.855Z,80.20
2018-09-17T02:26:51.848Z,79.80
2018-09-17T02:27:51.872Z,80.00
2018-09-17T02:28:51.823Z,79.39
2018-09-17T02:29:51.851Z,79.18
2018-09-17T02:30:51.797Z,79.49
2018-09-17T02:31:51.784Z,79.08
2018-09-17T02:32:51.778Z,79.28
2018-09-17T02:33:51.789Z,79.12
2018-09-17T02:34:51.752Z,79.08
2018-09-17T02:35:51.790Z,79.59
2018-09-17T02:36:51.730Z,79.69
2018-09-17T02:37:51.719Z,79.80
2018-09-17T02:38:51.706Z,79.90
2018-09-17T02:39:51.695Z,80.20
2018-09-17T02:40:51.687Z,79.59
2018-09-17T02:41:51.730Z,80.20
2018-09-17T02:42:51.673Z,79.80
2018-09-17T02:43:51.650Z,78.06
2018-09-17T02:44:51.647Z,78.71
2018-09-17T02:45:51.637Z,79.32
2018-09-17T02:46:51.627Z,79.43
2018-09-17T02:47:51.663Z,79.49
2018-09-17T02:48:51.599Z,79.59
2018-09-17T02:49:51.590Z,79.32
2018-09-17T02:50:51.585Z,79.83
2018-09-17T02:51:51.571Z,80.14
2018-09-17T02:52:51.574Z,79.73
2018-09-17T02:53:51.598Z,79.63
2018-09-17T02:54:51.531Z,79.59
2018-09-17T02:55:51.522Z,79.83
2018-09-17T02:56:51.516Z,79.63
2018-09-17T02:57:51.500Z,79.93
2018-09-17T02:58:51.487Z,79.80
2018-09-17T02:59:51.490Z,80.04
2018-09-17T03:00:51.502Z,79.59
2018-09-17T03:01:51.455Z,79.73
2018-09-17T03:02:51.442Z,79.39
2018-09-17T03:03:51.430Z,79.83
2018-09-17T03:04:51.422Z,79.28
2018-09-17T03:05:51.427Z,79.43
2018-09-17T03:06:51.433Z,79.80
2018-09-17T03:07:51.404Z,79.63
2018-09-17T03:08:51.387Z,79.83
2018-09-17T03:09:51.363Z,79.80
2018-09-17T03:10:51.358Z,79.73
2018-09-17T03:11:51.378Z,79.52
2018-09-17T03:12:51.334Z,79.52
2018-09-17T03:13:51.326Z,79.52
2018-09-17T03:14:59.213Z,79.43
2018-09-17T03:15:51.316Z,80.44
2018-09-17T03:16:51.308Z,79.93
2018-09-17T03:17:51.304Z,80.04
2018-09-17T03:18:51.305Z,80.04
2018-09-17T03:19:58.855Z,80.04
2018-09-17T03:20:51.364Z,79.52
2018-09-17T03:21:51.311Z,78.81
2018-09-17T03:22:51.269Z,79.52
2018-09-17T03:23:51.261Z,79.93
2018-09-17T03:24:51.226Z,79.73
2018-09-17T03:25:51.188Z,79.73
2018-09-17T03:26:51.185Z,79.63
2018-09-17T03:27:51.164Z,79.63
2018-09-17T03:28:51.188Z,79.73
2018-09-17T03:29:51.166Z,79.73
2018-09-17T03:30:51.133Z,79.63
2018-09-17T03:31:51.138Z,79.83
2018-09-17T03:32:51.186Z,79.73
2018-09-17T03:33:51.110Z,79.83
2018-09-17T03:34:51.088Z,79.73
2018-09-17T03:35:51.114Z,79.22
2018-09-17T03:36:51.065Z,79.43
2018-09-17T03:37:51.056Z,80.24
2018-09-17T03:38:51.072Z,79.93
2018-09-17T03:39:51.033Z,80.07
2018-09-17T03:40:51.020Z,79.97
2018-09-17T03:41:51.026Z,80.55
2018-09-17T03:42:51.008Z,80.55
2018-09-17T03:43:51.009Z,81.05
2018-09-17T03:44:50.984Z,79.83
2018-09-17T03:45:50.966Z,79.97
2018-09-17T03:46:51.058Z,80.07
2018-09-17T03:47:50.958Z,79.52
2018-09-17T03:48:50.936Z,79.93
2018-09-17T03:49:50.957Z,80.07
2018-09-17T03:50:50.912Z,80.04
2018-09-17T03:51:50.900Z,80.28
2018-09-17T03:52:50.909Z,80.69
2018-09-17T03:53:50.891Z,80.99
2018-09-17T03:54:50.867Z,80.38
2018-09-17T03:55:50.935Z,80.38
2018-09-17T03:56:50.844Z,80.69
2018-09-17T03:57:50.834Z,80.58
2018-09-17T03:58:50.825Z,80.69
2018-09-17T03:59:50.813Z,80.69
2018-09-17T04:00:50.820Z,80.58
2018-09-17T04:01:50.867Z,79.66
2018-09-17T04:02:50.780Z,80.07
2018-09-17T04:03:50.769Z,79.57
2018-09-17T04:04:50.755Z,80.18
2018-09-17T04:05:50.744Z,80.38
2018-09-17T04:06:50.737Z,80.07
2018-09-17T04:07:50.767Z,79.87
2018-09-17T04:08:50.712Z,80.07
2018-09-17T04:09:50.727Z,80.18
2018-09-17T04:10:50.695Z,80.38
2018-09-17T04:11:50.683Z,80.69
2018-09-17T04:12:50.669Z,81.10
2018-09-17T04:13:50.673Z,80.18
2018-09-17T04:14:58.703Z,79.57
2018-09-17T04:15:50.669Z,79.91
2018-09-17T04:16:50.639Z,81.03
2018-09-17T04:17:50.640Z,80.58
2018-09-17T04:18:50.604Z,81.13
2018-09-17T04:19:50.603Z,80.83
2018-09-17T04:20:50.622Z,80.99
2018-09-17T04:21:50.668Z,80.73
2018-09-17T04:22:50.693Z,81.24
2018-09-17T04:23:50.619Z,80.62
2018-09-17T04:24:50.555Z,81.30
2018-09-17T04:25:50.526Z,80.52
2018-09-17T04:26:50.544Z,81.34
2018-09-17T04:27:50.504Z,80.52
2018-09-17T04:28:50.518Z,81.13
2018-09-17T04:29:50.482Z,80.93
2018-09-17T04:30:50.498Z,81.54
2018-09-17T04:31:50.463Z,80.83
2018-09-17T04:32:50.447Z,81.44
2018-09-17T04:33:50.439Z,81.74
2018-09-17T04:34:50.455Z,80.93
2018-09-17T04:35:50.418Z,79.46
2018-09-17T04:36:50.442Z,80.01
2018-09-17T04:37:50.393Z,80.32
2018-09-17T04:38:50.386Z,81.13
2018-09-17T04:39:50.414Z,80.01
2018-09-17T04:40:50.364Z,80.32
2018-09-17T04:41:50.411Z,81.44
2018-09-17T04:42:50.363Z,81.13
2018-09-17T04:43:57.966Z,80.93
2018-09-17T04:44:50.414Z,80.62
2018-09-17T04:45:50.322Z,81.03
2018-09-17T04:46:50.302Z,80.93
2018-09-17T04:47:50.336Z,81.34
2018-09-17T04:48:50.373Z,81.34
2018-09-17T04:49:50.300Z,80.93
2018-09-17T04:50:50.326Z,81.24
2018-09-17T04:51:50.248Z,81.65
2018-09-17T04:52:50.228Z,81.54
2018-09-17T04:53:50.243Z,81.34
2018-09-17T04:54:50.264Z,81.54
2018-09-17T04:55:50.194Z,82.46
2018-09-17T04:56:50.200Z,82.36
2018-09-17T04:57:50.236Z,82.26
2018-09-17T04:58:50.163Z,81.54
2018-09-17T04:59:50.154Z,80.83
2018-09-17T05:00:50.203Z,80.42
2018-09-17T05:01:50.139Z,81.03
2018-09-17T05:02:50.171Z,81.24
2018-09-17T05:03:50.122Z,80.52
2018-09-17T05:04:50.096Z,81.03
2018-09-17T05:05:50.087Z,81.13
2018-09-17T05:06:50.084Z,81.85
2018-09-17T05:07:50.085Z,81.74
2018-09-17T05:08:50.201Z,82.56
2018-09-17T05:09:50.049Z,81.95
2018-09-17T05:10:50.038Z,82.56
2018-09-17T05:11:50.031Z,82.56
2018-09-17T05:12:50.012Z,82.87
2018-09-17T05:13:50.025Z,82.77
2018-09-17T05:14:50.019Z,82.46
2018-09-17T05:15:50.017Z,82.46
2018-09-17T05:16:49.979Z,82.26
2018-09-17T05:17:49.953Z,82.77
2018-09-17T05:18:49.948Z,82.36
2018-09-17T05:19:50.002Z,82.26
2018-09-17T05:20:49.931Z,82.46
2018-09-17T05:21:49.909Z,82.87
2018-09-17T05:22:49.915Z,82.77
2018-09-17T05:23:49.897Z,82.46
2018-09-17T05:24:49.881Z,81.65
2018-09-17T05:25:49.909Z,81.65
2018-09-17T05:26:49.877Z,82.26
2018-09-17T05:27:49.855Z,82.15
2018-09-17T05:28:49.834Z,82.42
2018-09-17T05:29:49.822Z,81.34
2018-09-17T05:30:49.824Z,80.62
2018-09-17T05:31:49.814Z,81.10
2018-09-17T05:32:49.786Z,80.79
2018-09-17T05:33:49.777Z,81.60
2018-09-17T05:34:49.767Z,81.10
2018-09-17T05:35:49.756Z,80.89
2018-09-17T05:36:49.768Z,81.30
2018-09-17T05:37:49.743Z,81.60
2018-09-17T05:38:49.723Z,81.10
2018-09-17T05:39:49.710Z,81.30
2018-09-17T05:40:49.723Z,80.28
2018-09-17T05:41:49.710Z,81.20
2018-09-17T05:42:49.681Z,81.51
2018-09-17T05:43:49.699Z,81.10
2018-09-17T05:44:49.718Z,81.91
2018-09-17T05:45:49.645Z,81.81
2018-09-17T05:46:49.645Z,81.81
2018-09-17T05:47:49.639Z,82.53
2018-09-17T05:48:49.630Z,82.18
2018-09-17T05:49:49.604Z,82.08
2018-09-17T05:50:49.614Z,81.67
2018-09-17T05:51:49.608Z,81.57
2018-09-17T05:52:49.570Z,81.60
2018-09-17T05:53:49.580Z,81.57
2018-09-17T05:54:49.562Z,81.87
2018-09-17T05:55:49.532Z,82.28
2018-09-17T05:56:49.525Z,81.87
2018-09-17T05:57:49.510Z,81.98
2018-09-17T05:58:49.504Z,80.85
2018-09-17T05:59:49.488Z,81.46
2018-09-17T06:00:49.497Z,81.26
2018-09-17T06:01:49.466Z,81.98
2018-09-17T06:02:49.478Z,81.16
2018-09-17T06:03:49.448Z,81.77
2018-09-17T06:04:49.454Z,81.57
2018-09-17T06:05:49.495Z,81.67
2018-09-17T06:06:49.446Z,81.98
2018-09-17T06:07:49.417Z,81.98
2018-09-17T06:08:49.410Z,82.49
2018-09-17T06:09:49.454Z,82.39
2018-09-17T06:10:49.369Z,82.79
2018-09-17T06:11:49.401Z,82.28
2018-09-17T06:12:49.370Z,81.77
2018-09-17T06:13:49.338Z,81.37
2018-09-17T06:14:49.322Z,82.08
2018-09-17T06:15:49.312Z,82.08
2018-09-17T06:16:49.314Z,82.08
2018-09-17T06:17:49.305Z,82.39
2018-09-17T06:18:49.302Z,82.04
2018-09-17T06:19:49.299Z,81.53
2018-09-17T06:20:49.255Z,81.43
2018-09-17T06:21:49.244Z,81.73
2018-09-17T06:22:49.234Z,81.53
2018-09-17T06:23:49.227Z,82.14
2018-09-17T06:24:49.242Z,82.04
2018-09-17T06:25:49.285Z,81.39
2018-09-17T06:26:49.191Z,80.68
2018-09-17T06:27:49.180Z,81.39
2018-09-17T06:28:49.241Z,80.88
2018-09-17T06:29:49.161Z,81.39
2018-09-17T06:30:49.147Z,81.29
2018-09-17T06:31:49.191Z,81.49
2018-09-17T06:32:49.127Z,82.31
2018-09-17T06:33:49.115Z,81.56
2018-09-17T06:34:49.143Z,81.45
2018-09-17T06:35:49.091Z,82.27
2018-09-17T06:36:49.079Z,81.56
2018-09-17T06:37:49.104Z,80.40
2018-09-17T06:38:49.061Z,80.50
2018-09-17T06:39:49.058Z,79.95
2018-09-17T06:40:49.053Z,78.42
2018-09-17T06:41:49.037Z,78.73
2018-09-17T06:42:49.018Z,77.87
2018-09-17T06:43:49.004Z,77.44
2018-09-17T06:44:49.011Z,76.42
2018-09-17T06:45:48.981Z,77.09
2018-09-17T06:46:49.000Z,76.59
2018-09-17T06:47:48.962Z,75.67
2018-09-17T06:48:48.962Z,77.60
2018-09-17T06:49:48.967Z,76.75
2018-09-17T06:50:48.925Z,75.94
2018-09-17T06:51:48.915Z,76.28
2018-09-17T06:52:48.917Z,75.53
2018-09-17T06:53:49.007Z,76.34
2018-09-17T06:54:48.883Z,75.94
2018-09-17T06:55:48.871Z,75.09
2018-09-17T06:56:48.862Z,75.70
2018-09-17T06:57:48.871Z,75.60
2018-09-17T06:58:48.836Z,75.56
2018-09-17T06:59:48.928Z,75.09
2018-09-17T07:00:48.862Z,75.16
2018-09-17T07:01:48.831Z,75.46
2018-09-17T07:02:48.814Z,75.73
2018-09-17T07:03:48.803Z,74.10
2018-09-17T07:04:48.779Z,74.51
2018-09-17T07:05:48.759Z,73.60
2018-09-17T07:06:48.765Z,74.21
2018-09-17T07:07:48.741Z,73.87
2018-09-17T07:08:48.776Z,73.77
2018-09-17T07:09:48.834Z,74.68
2018-09-17T07:10:48.705Z,73.66
2018-09-17T07:11:48.706Z,72.41
2018-09-17T07:12:48.684Z,72.78
2018-09-17T07:13:48.672Z,72.28
2018-09-17T07:14:48.709Z,72.17
2018-09-17T07:15:48.749Z,71.06
2018-09-17T07:16:48.678Z,71.57
2018-09-17T07:17:48.664Z,71.03
2018-09-17T07:18:48.619Z,70.72
2018-09-17T07:19:56.351Z,71.84
2018-09-17T07:20:48.664Z,70.93
2018-09-17T07:21:48.609Z,72.52
2018-09-17T07:22:48.613Z,71.00
2018-09-17T07:23:48.629Z,70.29
2018-09-17T07:24:48.854Z,71.20
2018-09-17T07:25:48.574Z,70.65
2018-09-17T07:26:48.526Z,70.56
2018-09-17T07:27:48.556Z,70.65
2018-09-17T07:28:48.504Z,69.41
2018-09-17T07:29:48.576Z,69.41
2018-09-17T07:30:48.525Z,69.51
2018-09-17T07:31:48.473Z,69.71
2018-09-17T07:32:48.464Z,70.09
2018-09-17T07:33:48.450Z,67.66
2018-09-17T07:34:48.444Z,68.57
2018-09-17T07:35:48.534Z,67.63
2018-09-17T07:36:48.422Z,67.72
2018-09-17T07:37:48.424Z,68.43
2018-09-17T07:38:48.393Z,66.48
2018-09-17T07:39:56.057Z,66.48
2018-09-17T07:40:48.543Z,66.69
2018-09-17T07:41:48.423Z,66.78
2018-09-17T07:42:48.374Z,66.58
2018-09-17T07:43:48.420Z,65.17
2018-09-17T07:44:48.412Z,66.69
2018-09-17T07:45:48.389Z,66.45
2018-09-17T07:46:48.653Z,66.86
2018-09-17T07:47:48.356Z,67.46
2018-09-17T07:48:48.285Z,66.45
2018-09-17T07:49:56.574Z,65.04
2018-09-17T07:50:48.320Z,66.86
2018-09-17T07:51:48.440Z,65.71
2018-09-17T07:52:48.452Z,67.83
2018-09-17T07:53:48.310Z,68.64
2018-09-17T07:54:48.291Z,66.72
2018-09-17T07:55:48.227Z,67.23
2018-09-17T07:56:48.252Z,64.90
2018-09-17T07:57:48.202Z,64.78
2018-09-17T07:58:48.334Z,64.47
2018-09-17T07:59:48.160Z,62.85
2018-09-17T08:00:48.197Z,62.76
2018-09-17T08:01:48.160Z,64.37
2018-09-17T08:02:48.160Z,63.76
2018-09-17T08:03:48.129Z,62.55
2018-09-17T08:04:48.107Z,62.65
2018-09-17T08:05:48.190Z,63.73
2018-09-17T08:06:48.115Z,63.73
2018-09-17T08:07:48.073Z,65.55
2018-09-17T08:08:48.097Z,66.16
2018-09-17T08:09:48.136Z,64.34
2018-09-17T08:10:48.040Z,63.64
2018-09-17T08:11:48.069Z,65.45
2018-09-17T08:12:48.042Z,64.54
2018-09-17T08:13:48.006Z,64.54
2018-09-17T08:14:47.998Z,64.31
2018-09-17T08:15:47.983Z,62.70
2018-09-17T08:16:48.110Z,64.61
2018-09-17T08:17:47.963Z,62.40
2018-09-17T08:18:47.968Z,62.57
2018-09-17T08:19:47.998Z,62.66
2018-09-17T08:20:47.929Z,62.57
2018-09-17T08:21:47.918Z,62.06
2018-09-17T08:22:47.926Z,62.66
2018-09-17T08:23:47.996Z,64.05
2018-09-17T08:24:47.934Z,62.04
2018-09-17T08:25:47.872Z,62.71
2018-09-17T08:26:47.899Z,61.20
2018-09-17T08:27:47.878Z,60.87
2018-09-17T08:28:47.840Z,62.48
2018-09-17T08:29:47.848Z,61.37
2018-09-17T08:30:47.838Z,59.13
2018-09-17T08:31:47.807Z,59.03
2018-09-17T08:32:47.798Z,58.73
2018-09-17T08:33:47.784Z,58.83
2018-09-17T08:34:47.802Z,58.53
2018-09-17T08:35:47.767Z,59.53
2018-09-17T08:36:47.763Z,58.42
2018-09-17T08:37:47.788Z,58.75
2018-09-17T08:38:47.730Z,60.03
2018-09-17T08:39:47.717Z,61.14
2018-09-17T08:40:47.789Z,59.96
2018-09-17T08:41:47.739Z,59.96
2018-09-17T08:42:47.712Z,60.16
2018-09-17T08:43:47.701Z,59.86
2018-09-17T08:44:47.709Z,61.44
2018-09-17T08:45:47.652Z,61.04
2018-09-17T08:46:47.643Z,61.34
2018-09-17T08:47:47.686Z,59.74
2018-09-17T08:48:47.648Z,59.83
2018-09-17T08:49:47.608Z,60.03
2018-09-17T08:50:47.599Z,59.00
2018-09-17T08:51:47.588Z,59.10
2018-09-17T08:52:47.638Z,58.50
2018-09-17T08:53:47.580Z,59.10
2018-09-17T08:54:47.553Z,59.41
2018-09-17T08:55:47.546Z,58.09
2018-09-17T08:56:47.572Z,58.50
2018-09-17T08:57:47.523Z,59.30
2018-09-17T08:58:47.545Z,59.00
2018-09-17T08:59:47.511Z,59.00
2018-09-17T09:00:47.550Z,58.67
2018-09-17T09:01:47.490Z,59.80
2018-09-17T09:02:47.498Z,58.00
2018-09-17T09:03:47.497Z,59.47
2018-09-17T09:04:47.445Z,57.46
2018-09-17T09:05:47.456Z,56.76
2018-09-17T09:06:47.445Z,56.76
2018-09-17T09:07:47.412Z,57.06
2018-09-17T09:08:47.398Z,57.77
2018-09-17T09:09:47.388Z,57.67
2018-09-17T09:10:47.400Z,56.86
2018-09-17T09:11:47.399Z,58.64
2018-09-17T09:12:47.386Z,57.64
2018-09-17T09:13:47.343Z,58.24
2018-09-17T09:14:47.332Z,56.03
2018-09-17T09:15:47.345Z,56.34
2018-09-17T09:16:47.312Z,56.93
2018-09-17T09:17:47.300Z,55.80
2018-09-17T09:18:47.307Z,56.63
2018-09-17T09:19:54.957Z,57.04
2018-09-17T09:20:47.334Z,57.24
2018-09-17T09:21:47.284Z,56.84
2018-09-17T09:22:47.278Z,57.81
2018-09-17T09:23:47.268Z,58.92
2018-09-17T09:24:47.532Z,57.21
2018-09-17T09:25:47.308Z,58.51
2018-09-17T09:26:47.219Z,60.02
2018-09-17T09:27:47.189Z,57.74
2018-09-17T09:28:47.244Z,55.20
2018-09-17T09:29:47.273Z,56.91
2018-09-17T09:30:47.191Z,56.91
2018-09-17T09:31:47.148Z,55.10
2018-09-17T09:32:47.176Z,55.08
2018-09-17T09:33:47.128Z,54.77
2018-09-17T09:34:47.114Z,56.78
2018-09-17T09:35:47.124Z,56.18
2018-09-17T09:36:47.163Z,53.64
2018-09-17T09:37:47.079Z,55.05
2018-09-17T09:38:47.070Z,53.64
2018-09-17T09:39:47.080Z,53.12
2018-09-17T09:40:47.047Z,53.12
2018-09-17T09:41:47.054Z,53.12
2018-09-17T09:42:47.045Z,55.32
2018-09-17T09:43:47.013Z,53.39
2018-09-17T09:44:47.052Z,54.20
2018-09-17T09:45:46.994Z,53.39
2018-09-17T09:46:46.981Z,53.17
2018-09-17T09:47:47.064Z,53.27
2018-09-17T09:48:46.962Z,53.17
2018-09-17T09:49:46.949Z,53.47
2018-09-17T09:50:46.953Z,53.14
2018-09-17T09:51:46.978Z,52.55
2018-09-17T09:52:46.956Z,53.12
2018-09-17T09:53:46.904Z,50.52
2018-09-17T09:54:46.905Z,52.72
2018-09-17T09:55:46.883Z,51.09
2018-09-17T09:56:46.872Z,51.69
2018-09-17T09:57:46.874Z,51.37
2018-09-17T09:58:46.892Z,50.87
2018-09-17T09:59:46.864Z,51.17
2018-09-17T10:00:46.827Z,49.57
2018-09-17T10:01:46.843Z,49.47
2018-09-17T10:02:46.808Z,49.37
2018-09-17T10:03:46.795Z,50.47
2018-09-17T10:04:46.785Z,49.47
2018-09-17T10:05:46.801Z,49.17
2018-09-17T10:06:46.803Z,49.77
2018-09-17T10:07:46.750Z,50.24
2018-09-17T10:08:46.739Z,49.74
2018-09-17T10:09:46.729Z,49.85
2018-09-17T10:10:46.718Z,51.94
2018-09-17T10:11:46.739Z,49.32
2018-09-17T10:12:46.854Z,49.05
2018-09-17T10:13:46.683Z,49.62
2018-09-17T10:14:46.674Z,47.92
2018-09-17T10:15:46.666Z,48.52
2018-09-17T10:16:46.651Z,48.13
2018-09-17T10:17:46.654Z,49.62
2018-09-17T10:18:46.687Z,49.20
2018-09-17T10:19:46.620Z,47.78
2018-09-17T10:20:46.604Z,49.90
2018-09-17T10:21:46.593Z,48.20
2018-09-17T10:22:46.611Z,47.90
2018-09-17T10:23:54.791Z,46.61
2018-09-17T10:24:46.568Z,48.88
2018-09-17T10:25:46.707Z,46.48
2018-09-17T10:26:46.777Z,50.25
2018-09-17T10:27:46.572Z,49.65
2018-09-17T10:28:46.530Z,47.86
2018-09-17T10:29:46.750Z,46.06
2018-09-17T10:30:46.551Z,47.36
2018-09-17T10:31:46.527Z,48.13
2018-09-17T10:32:46.556Z,45.44
2018-09-17T10:33:46.529Z,45.24
2018-09-17T10:34:46.477Z,45.64
2018-09-17T10:35:46.488Z,44.74
2018-09-17T10:36:46.630Z,45.04
2018-09-17T10:37:46.481Z,44.74
2018-09-17T10:38:46.632Z,46.04
2018-09-17T10:39:46.393Z,44.84
2018-09-17T10:40:46.439Z,44.96
2018-09-17T10:41:46.380Z,44.74
2018-09-17T10:42:54.375Z,44.35
2018-09-17T10:43:46.355Z,47.44
2018-09-17T10:44:46.403Z,47.44
2018-09-17T10:45:46.331Z,44.54
2018-09-17T10:46:46.389Z,44.76
2018-09-17T10:47:46.405Z,46.04
2018-09-17T10:48:46.418Z,46.16
2018-09-17T10:49:46.323Z,46.36
2018-09-17T10:50:46.292Z,47.26
2018-09-17T10:51:46.461Z,45.17
2018-09-17T10:52:46.274Z,44.59
2018-09-17T10:53:46.313Z,45.78
2018-09-17T10:54:46.232Z,44.19
2018-09-17T10:55:46.235Z,44.07
2018-09-17T10:56:46.260Z,44.46
2018-09-17T10:57:46.193Z,43.37
2018-09-17T10:58:46.185Z,44.84
2018-09-17T10:59:46.207Z,45.14
2018-09-17T11:00:46.215Z,44.12
2018-09-17T11:01:55.158Z,43.33
2018-09-17T11:02:46.178Z,42.83
2018-09-17T11:03:46.145Z,43.23
2018-09-17T11:04:46.119Z,43.21
2018-09-17T11:05:46.312Z,42.63
2018-09-17T11:06:46.355Z,41.74
2018-09-17T11:07:46.179Z,42.63
2018-09-17T11:08:46.109Z,43.52
2018-09-17T11:09:46.062Z,42.53
2018-09-17T11:10:46.081Z,44.32
2018-09-17T11:11:46.041Z,43.43
2018-09-17T11:12:46.032Z,43.73
2018-09-17T11:13:46.078Z,43.93
2018-09-17T11:14:46.013Z,42.13
2018-09-17T11:15:46.001Z,42.53
2018-09-17T11:16:46.010Z,42.35
2018-09-17T11:17:46.023Z,42.43
2018-09-17T11:18:45.966Z,42.53
2018-09-17T11:19:46.114Z,43.03
2018-09-17T11:20:45.945Z,42.43
2018-09-17T11:21:53.996Z,42.53
2018-09-17T11:22:45.970Z,43.60
2018-09-17T11:23:45.934Z,42.41
2018-09-17T11:24:45.901Z,42.31
2018-09-17T11:25:45.946Z,43.01
2018-09-17T11:26:46.137Z,42.33
2018-09-17T11:27:45.990Z,44.80
2018-09-17T11:28:45.912Z,43.71
2018-09-17T11:29:45.845Z,44.01
2018-09-17T11:30:45.856Z,43.38
2018-09-17T11:31:45.898Z,43.80
2018-09-17T11:32:45.810Z,44.08
2018-09-17T11:33:45.801Z,42.49
2018-09-17T11:34:45.815Z,43.66
2018-09-17T11:35:45.777Z,42.49
2018-09-17T11:36:45.765Z,40.18
2018-09-17T11:37:45.777Z,41.67
2018-09-17T11:38:45.745Z,40.30
2018-09-17T11:39:45.774Z,41.69
2018-09-17T11:40:54.190Z,41.09
2018-09-17T11:41:45.749Z,40.98
2018-09-17T11:42:45.701Z,40.88
2018-09-17T11:43:45.754Z,40.78
2018-09-17T11:44:45.680Z,40.48
2018-09-17T11:45:45.696Z,40.58
2018-09-17T11:46:45.713Z,40.70
2018-09-17T11:47:45.700Z,39.90
2018-09-17T11:48:45.663Z,40.70
2018-09-17T11:49:46.006Z,40.38
2018-09-17T11:50:45.700Z,41.28
2018-09-17T11:51:45.906Z,40.58
2018-09-17T11:52:45.594Z,39.89
2018-09-17T11:53:45.669Z,40.60
2018-09-17T11:54:45.825Z,40.50
2018-09-17T11:55:45.582Z,40.68
2018-09-17T11:56:45.589Z,40.88
2018-09-17T11:57:45.536Z,40.38
2018-09-17T11:58:45.586Z,41.77
2018-09-17T12:01:00.408Z,39.37
2018-09-17T12:02:00.689Z,39.86
2018-09-17T12:03:00.413Z,39.57
2018-09-17T12:04:00.454Z,38.79
2018-09-17T12:05:00.301Z,39.78
2018-09-17T12:06:00.267Z,40.16
2018-09-17T12:07:00.288Z,40.36
2018-09-17T12:08:00.237Z,40.56
2018-09-17T12:09:00.226Z,41.34
2018-09-17T12:10:00.251Z,40.06
2018-09-17T12:11:00.284Z,39.76
2018-09-17T12:12:00.217Z,40.78
2018-09-17T12:13:00.203Z,40.68
2018-09-17T12:14:00.256Z,40.46
2018-09-17T12:15:00.163Z,40.66
2018-09-17T12:16:00.151Z,39.48
2018-09-17T12:17:00.203Z,40.58
2018-09-17T12:18:00.150Z,40.48
2018-09-17T12:19:00.155Z,40.28
2018-09-17T12:20:08.152Z,40.50
2018-09-17T12:21:00.156Z,39.40
2018-09-17T12:22:00.086Z,40.48
2018-09-17T12:23:00.123Z,43.44
2018-09-17T12:24:00.397Z,41.46
2018-09-17T12:25:00.253Z,40.46
2018-09-17T12:26:00.090Z,39.54
2018-09-17T12:27:00.032Z,38.85
2018-09-17T12:28:00.071Z,38.35
2018-09-17T12:29:00.021Z,38.56
2018-09-17T12:30:00.005Z,38.65
2018-09-17T12:31:00.158Z,39.45
2018-09-17T12:31:59.983Z,39.75
2018-09-17T12:33:00.012Z,39.95
2018-09-17T12:34:00.090Z,39.65
2018-09-17T12:34:59.988Z,40.74
2018-09-17T12:35:59.939Z,40.24
2018-09-17T12:36:59.947Z,40.24
2018-09-17T12:37:59.935Z,39.97
2018-09-17T12:39:08.062Z,40.88
2018-09-17T12:39:59.954Z,40.36
2018-09-17T12:40:59.882Z,40.86
2018-09-17T12:41:59.942Z,39.37
2018-09-17T12:42:59.987Z,40.36
2018-09-17T12:43:59.875Z,40.56
2018-09-17T12:44:59.864Z,39.95
2018-09-17T12:45:59.898Z,38.45
2018-09-17T12:46:59.865Z,38.07
2018-09-17T12:47:59.844Z,38.87
2018-09-17T12:48:59.895Z,38.85
2018-09-17T12:49:59.941Z,38.47
2018-09-17T12:50:59.919Z,38.79
2018-09-17T12:51:59.857Z,38.49
2018-09-17T12:52:59.834Z,38.89
2018-09-17T12:53:59.865Z,39.78